sensor_id;sensor_type;location;lat;lon;timestamp;temperature;humidity
70246;SHT30;57637;49.272;8.590;2023-11-19T00:01:35;8.99;94.22
70246;SHT30;57637;49.272;8.590;2023-11-19T00:04:00;8.97;94.24
70246;SHT30;57637;49.272;8.590;2023-11-19T00:06:25;9.00;94.23
70246;SHT30;57637;49.272;8.590;2023-11-19T00:08:51;8.99;94.23
70246;SHT30;57637;49.272;8.590;2023-11-19T00:11:16;9.01;94.25
70246;SHT30;57637;49.272;8.590;2023-11-19T00:13:42;9.06;94.33
70246;SHT30;57637;49.272;8.590;2023-11-19T00:16:07;9.06;94.32
70246;SHT30;57637;49.272;8.590;2023-11-19T00:18:34;9.06;94.33
70246;SHT30;57637;49.272;8.590;2023-11-19T00:21:01;9.08;94.36
70246;SHT30;57637;49.272;8.590;2023-11-19T00:23:27;9.08;94.39
70246;SHT30;57637;49.272;8.590;2023-11-19T00:25:52;9.11;94.41
70246;SHT30;57637;49.272;8.590;2023-11-19T00:28:18;9.07;94.43
70246;SHT30;57637;49.272;8.590;2023-11-19T00:30:43;9.13;94.42
70246;SHT30;57637;49.272;8.590;2023-11-19T00:33:08;9.14;94.49
70246;SHT30;57637;49.272;8.590;2023-11-19T00:35:34;9.16;94.48
70246;SHT30;57637;49.272;8.590;2023-11-19T00:37:59;9.16;94.54
70246;SHT30;57637;49.272;8.590;2023-11-19T00:40:25;9.17;94.59
70246;SHT30;57637;49.272;8.590;2023-11-19T00:42:51;9.17;94.59
70246;SHT30;57637;49.272;8.590;2023-11-19T00:45:16;9.20;94.64
70246;SHT30;57637;49.272;8.590;2023-11-19T00:47:42;9.21;94.68
70246;SHT30;57637;49.272;8.590;2023-11-19T00:50:08;9.20;94.70
70246;SHT30;57637;49.272;8.590;2023-11-19T00:52:37;9.26;94.73
70246;SHT30;57637;49.272;8.590;2023-11-19T00:55:03;9.27;94.77
70246;SHT30;57637;49.272;8.590;2023-11-19T00:57:30;9.31;94.76
70246;SHT30;57637;49.272;8.590;2023-11-19T00:59:58;9.30;94.77
70246;SHT30;57637;49.272;8.590;2023-11-19T01:02:24;9.30;94.82
70246;SHT30;57637;49.272;8.590;2023-11-19T01:04:49;9.32;94.86
70246;SHT30;57637;49.272;8.590;2023-11-19T01:07:15;9.31;94.89
70246;SHT30;57637;49.272;8.590;2023-11-19T01:09:44;9.34;94.92
70246;SHT30;57637;49.272;8.590;2023-11-19T01:12:09;9.37;94.89
70246;SHT30;57637;49.272;8.590;2023-11-19T01:14:35;9.37;94.95
70246;SHT30;57637;49.272;8.590;2023-11-19T01:17:01;9.37;95.00
70246;SHT30;57637;49.272;8.590;2023-11-19T01:19:27;9.35;94.99
70246;SHT30;57637;49.272;8.590;2023-11-19T01:21:53;9.38;94.99
70246;SHT30;57637;49.272;8.590;2023-11-19T01:24:19;9.40;95.00
70246;SHT30;57637;49.272;8.590;2023-11-19T01:26:45;9.41;95.00
70246;SHT30;57637;49.272;8.590;2023-11-19T01:29:15;9.44;95.03
70246;SHT30;57637;49.272;8.590;2023-11-19T01:31:45;9.44;95.03
70246;SHT30;57637;49.272;8.590;2023-11-19T01:34:12;9.48;95.05
70246;SHT30;57637;49.272;8.590;2023-11-19T01:36:37;9.48;95.07
70246;SHT30;57637;49.272;8.590;2023-11-19T01:39:04;9.52;95.07
70246;SHT30;57637;49.272;8.590;2023-11-19T01:41:33;9.51;95.08
70246;SHT30;57637;49.272;8.590;2023-11-19T01:44:00;9.51;95.09
70246;SHT30;57637;49.272;8.590;2023-11-19T01:46:25;9.51;95.10
70246;SHT30;57637;49.272;8.590;2023-11-19T01:48:51;9.54;95.09
70246;SHT30;57637;49.272;8.590;2023-11-19T01:51:17;9.55;95.09
70246;SHT30;57637;49.272;8.590;2023-11-19T01:53:43;9.55;95.08
70246;SHT30;57637;49.272;8.590;2023-11-19T01:56:09;9.57;95.06
70246;SHT30;57637;49.272;8.590;2023-11-19T01:58:38;9.59;95.11
70246;SHT30;57637;49.272;8.590;2023-11-19T02:01:05;9.58;95.07
70246;SHT30;57637;49.272;8.590;2023-11-19T02:03:32;9.61;95.08
70246;SHT30;57637;49.272;8.590;2023-11-19T02:05:59;9.57;95.05
70246;SHT30;57637;49.272;8.590;2023-11-19T02:08:24;9.61;95.09
70246;SHT30;57637;49.272;8.590;2023-11-19T02:10:51;9.62;95.07
70246;SHT30;57637;49.272;8.590;2023-11-19T02:13:17;9.63;95.07
70246;SHT30;57637;49.272;8.590;2023-11-19T02:15:43;9.65;95.11
70246;SHT30;57637;49.272;8.590;2023-11-19T02:18:24;9.65;95.10
70246;SHT30;57637;49.272;8.590;2023-11-19T02:20:53;9.68;95.08
70246;SHT30;57637;49.272;8.590;2023-11-19T02:23:20;9.74;95.11
70246;SHT30;57637;49.272;8.590;2023-11-19T02:26:07;9.74;95.08
70246;SHT30;57637;49.272;8.590;2023-11-19T02:28:46;9.74;95.06
70246;SHT30;57637;49.272;8.590;2023-11-19T02:31:11;9.75;95.09
70246;SHT30;57637;49.272;8.590;2023-11-19T02:33:37;9.79;95.13
70246;SHT30;57637;49.272;8.590;2023-11-19T02:36:04;9.81;95.11
70246;SHT30;57637;49.272;8.590;2023-11-19T02:38:30;9.79;95.08
70246;SHT30;57637;49.272;8.590;2023-11-19T02:40:56;9.83;95.11
70246;SHT30;57637;49.272;8.590;2023-11-19T02:43:22;9.82;95.10
70246;SHT30;57637;49.272;8.590;2023-11-19T02:45:47;9.83;95.09
70246;SHT30;57637;49.272;8.590;2023-11-19T02:48:13;9.86;95.12
70246;SHT30;57637;49.272;8.590;2023-11-19T02:50:40;9.86;95.13
70246;SHT30;57637;49.272;8.590;2023-11-19T02:53:07;9.95;95.15
70246;SHT30;57637;49.272;8.590;2023-11-19T02:55:33;9.98;95.16
70246;SHT30;57637;49.272;8.590;2023-11-19T02:58:02;9.98;95.18
70246;SHT30;57637;49.272;8.590;2023-11-19T03:00:34;10.02;95.18
70246;SHT30;57637;49.272;8.590;2023-11-19T03:03:12;10.05;95.19
70246;SHT30;57637;49.272;8.590;2023-11-19T03:05:48;10.03;95.22
70246;SHT30;57637;49.272;8.590;2023-11-19T03:08:15;10.06;95.24
70246;SHT30;57637;49.272;8.590;2023-11-19T03:10:41;10.09;95.21
70246;SHT30;57637;49.272;8.590;2023-11-19T03:13:09;10.13;95.21
70246;SHT30;57637;49.272;8.590;2023-11-19T03:15:38;10.14;95.24
70246;SHT30;57637;49.272;8.590;2023-11-19T03:18:03;10.13;95.28
70246;SHT30;57637;49.272;8.590;2023-11-19T03:20:28;10.17;95.28
70246;SHT30;57637;49.272;8.590;2023-11-19T03:22:55;10.16;95.27
70246;SHT30;57637;49.272;8.590;2023-11-19T03:25:24;10.23;95.32
70246;SHT30;57637;49.272;8.590;2023-11-19T03:27:52;10.19;95.35
70246;SHT30;57637;49.272;8.590;2023-11-19T03:30:18;10.20;95.33
70246;SHT30;57637;49.272;8.590;2023-11-19T03:32:45;10.24;95.32
70246;SHT30;57637;49.272;8.590;2023-11-19T03:35:11;10.26;95.32
70246;SHT30;57637;49.272;8.590;2023-11-19T03:37:37;10.29;95.35
70246;SHT30;57637;49.272;8.590;2023-11-19T03:40:02;10.28;95.32
70246;SHT30;57637;49.272;8.590;2023-11-19T03:42:29;10.29;95.35
70246;SHT30;57637;49.272;8.590;2023-11-19T03:44:57;10.30;95.33
70246;SHT30;57637;49.272;8.590;2023-11-19T03:47:23;10.32;95.37
70246;SHT30;57637;49.272;8.590;2023-11-19T03:49:49;10.33;95.38
70246;SHT30;57637;49.272;8.590;2023-11-19T03:52:15;10.37;95.39
70246;SHT30;57637;49.272;8.590;2023-11-19T03:54:41;10.37;95.38
70246;SHT30;57637;49.272;8.590;2023-11-19T03:57:06;10.40;95.40
70246;SHT30;57637;49.272;8.590;2023-11-19T03:59:32;10.40;95.42
70246;SHT30;57637;49.272;8.590;2023-11-19T04:01:58;10.40;95.46
70246;SHT30;57637;49.272;8.590;2023-11-19T04:04:25;10.44;95.46
70246;SHT30;57637;49.272;8.590;2023-11-19T04:06:52;10.47;95.48
70246;SHT30;57637;49.272;8.590;2023-11-19T04:09:18;10.49;95.49
70246;SHT30;57637;49.272;8.590;2023-11-19T04:11:43;10.50;95.49
70246;SHT30;57637;49.272;8.590;2023-11-19T04:14:11;10.54;95.54
70246;SHT30;57637;49.272;8.590;2023-11-19T04:16:38;10.54;95.52
70246;SHT30;57637;49.272;8.590;2023-11-19T04:19:03;10.56;95.50
70246;SHT30;57637;49.272;8.590;2023-11-19T04:21:29;10.57;95.55
70246;SHT30;57637;49.272;8.590;2023-11-19T04:23:54;10.61;95.53
70246;SHT30;57637;49.272;8.590;2023-11-19T04:26:19;10.61;95.52
70246;SHT30;57637;49.272;8.590;2023-11-19T04:28:45;10.63;95.53
70246;SHT30;57637;49.272;8.590;2023-11-19T04:31:10;10.65;95.55
70246;SHT30;57637;49.272;8.590;2023-11-19T04:33:35;10.67;95.57
70246;SHT30;57637;49.272;8.590;2023-11-19T04:36:01;10.68;95.57
70246;SHT30;57637;49.272;8.590;2023-11-19T04:38:27;10.68;95.55
70246;SHT30;57637;49.272;8.590;2023-11-19T04:40:52;10.71;95.58
70246;SHT30;57637;49.272;8.590;2023-11-19T04:43:18;10.71;95.57
70246;SHT30;57637;49.272;8.590;2023-11-19T04:45:45;10.75;95.58
70246;SHT30;57637;49.272;8.590;2023-11-19T04:48:11;10.77;95.53
70246;SHT30;57637;49.272;8.590;2023-11-19T04:50:37;10.77;95.56
70246;SHT30;57637;49.272;8.590;2023-11-19T04:53:03;10.78;95.57
70246;SHT30;57637;49.272;8.590;2023-11-19T04:55:28;10.78;95.57
70246;SHT30;57637;49.272;8.590;2023-11-19T04:57:54;10.78;95.53
70246;SHT30;57637;49.272;8.590;2023-11-19T05:00:19;10.83;95.52
70246;SHT30;57637;49.272;8.590;2023-11-19T05:02:46;10.83;95.53
70246;SHT30;57637;49.272;8.590;2023-11-19T05:05:12;10.84;95.53
70246;SHT30;57637;49.272;8.590;2023-11-19T05:07:37;10.87;95.54
70246;SHT30;57637;49.272;8.590;2023-11-19T05:10:03;10.88;95.51
70246;SHT30;57637;49.272;8.590;2023-11-19T05:12:31;10.88;95.49
70246;SHT30;57637;49.272;8.590;2023-11-19T05:14:56;10.88;95.49
70246;SHT30;57637;49.272;8.590;2023-11-19T05:17:23;10.93;95.47
70246;SHT30;57637;49.272;8.590;2023-11-19T05:19:48;10.93;95.46
70246;SHT30;57637;49.272;8.590;2023-11-19T05:22:14;10.94;95.45
70246;SHT30;57637;49.272;8.590;2023-11-19T05:24:39;10.94;95.44
70246;SHT30;57637;49.272;8.590;2023-11-19T05:27:06;11.00;95.45
70246;SHT30;57637;49.272;8.590;2023-11-19T05:29:33;11.01;95.43
70246;SHT30;57637;49.272;8.590;2023-11-19T05:31:58;11.01;95.41
70246;SHT30;57637;49.272;8.590;2023-11-19T05:34:24;11.04;95.38
70246;SHT30;57637;49.272;8.590;2023-11-19T05:36:50;11.04;95.37
70246;SHT30;57637;49.272;8.590;2023-11-19T05:39:16;11.05;95.33
70246;SHT30;57637;49.272;8.590;2023-11-19T05:41:42;11.11;95.39
70246;SHT30;57637;49.272;8.590;2023-11-19T05:44:07;11.10;95.30
70246;SHT30;57637;49.272;8.590;2023-11-19T05:46:33;11.07;95.27
70246;SHT30;57637;49.272;8.590;2023-11-19T05:48:58;11.08;95.27
70246;SHT30;57637;49.272;8.590;2023-11-19T05:51:24;11.10;95.29
70246;SHT30;57637;49.272;8.590;2023-11-19T05:53:49;11.14;95.29
70246;SHT30;57637;49.272;8.590;2023-11-19T05:56:15;11.15;95.24
70246;SHT30;57637;49.272;8.590;2023-11-19T05:58:46;11.16;95.23
70246;SHT30;57637;49.272;8.590;2023-11-19T06:01:14;11.18;95.21
70246;SHT30;57637;49.272;8.590;2023-11-19T06:03:39;11.24;95.23
70246;SHT30;57637;49.272;8.590;2023-11-19T06:06:05;11.26;95.17
70246;SHT30;57637;49.272;8.590;2023-11-19T06:08:30;11.29;95.11
70246;SHT30;57637;49.272;8.590;2023-11-19T06:10:56;11.29;95.08
70246;SHT30;57637;49.272;8.590;2023-11-19T06:13:22;11.32;95.09
70246;SHT30;57637;49.272;8.590;2023-11-19T06:15:47;11.35;95.03
70246;SHT30;57637;49.272;8.590;2023-11-19T06:18:12;11.38;94.99
70246;SHT30;57637;49.272;8.590;2023-11-19T06:20:39;11.39;94.94
70246;SHT30;57637;49.272;8.590;2023-11-19T06:23:05;11.42;94.94
70246;SHT30;57637;49.272;8.590;2023-11-19T06:25:30;11.43;94.87
70246;SHT30;57637;49.272;8.590;2023-11-19T06:27:56;11.46;94.81
70246;SHT30;57637;49.272;8.590;2023-11-19T06:30:22;11.45;94.83
70246;SHT30;57637;49.272;8.590;2023-11-19T06:32:47;11.48;94.75
70246;SHT30;57637;49.272;8.590;2023-11-19T06:35:13;11.51;94.77
70246;SHT30;57637;49.272;8.590;2023-11-19T06:37:39;11.52;94.77
70246;SHT30;57637;49.272;8.590;2023-11-19T06:40:05;11.55;94.74
70246;SHT30;57637;49.272;8.590;2023-11-19T06:42:32;11.62;94.72
70246;SHT30;57637;49.272;8.590;2023-11-19T06:44:58;11.62;94.69
70246;SHT30;57637;49.272;8.590;2023-11-19T06:47:27;11.63;94.61
70246;SHT30;57637;49.272;8.590;2023-11-19T06:49:53;11.66;94.54
70246;SHT30;57637;49.272;8.590;2023-11-19T06:52:18;11.66;94.50
70246;SHT30;57637;49.272;8.590;2023-11-19T06:54:44;11.69;94.45
70246;SHT30;57637;49.272;8.590;2023-11-19T06:57:10;11.69;94.40
70246;SHT30;57637;49.272;8.590;2023-11-19T06:59:36;11.73;94.36
70246;SHT30;57637;49.272;8.590;2023-11-19T07:02:02;11.75;94.33
70246;SHT30;57637;49.272;8.590;2023-11-19T07:04:28;11.77;94.30
70246;SHT30;57637;49.272;8.590;2023-11-19T07:06:53;11.80;94.27
70246;SHT30;57637;49.272;8.590;2023-11-19T07:09:19;11.83;94.23
70246;SHT30;57637;49.272;8.590;2023-11-19T07:11:44;11.85;94.17
70246;SHT30;57637;49.272;8.590;2023-11-19T07:14:11;11.87;94.15
70246;SHT30;57637;49.272;8.590;2023-11-19T07:16:36;11.87;94.14
70246;SHT30;57637;49.272;8.590;2023-11-19T07:19:03;11.87;94.09
70246;SHT30;57637;49.272;8.590;2023-11-19T07:21:30;11.91;94.09
70246;SHT30;57637;49.272;8.590;2023-11-19T07:23:55;11.93;94.02
70246;SHT30;57637;49.272;8.590;2023-11-19T07:26:21;11.93;93.96
70246;SHT30;57637;49.272;8.590;2023-11-19T07:28:47;11.96;93.97
70246;SHT30;57637;49.272;8.590;2023-11-19T07:31:13;11.97;93.97
70246;SHT30;57637;49.272;8.590;2023-11-19T07:33:39;11.99;94.00
70246;SHT30;57637;49.272;8.590;2023-11-19T07:36:04;12.01;93.96
70246;SHT30;57637;49.272;8.590;2023-11-19T07:38:30;12.03;94.00
70246;SHT30;57637;49.272;8.590;2023-11-19T07:40:56;12.07;94.06
70246;SHT30;57637;49.272;8.590;2023-11-19T07:43:21;12.06;94.09
70246;SHT30;57637;49.272;8.590;2023-11-19T07:45:47;12.06;94.13
70246;SHT30;57637;49.272;8.590;2023-11-19T07:48:12;12.03;94.22
70246;SHT30;57637;49.272;8.590;2023-11-19T07:50:38;12.04;94.29
70246;SHT30;57637;49.272;8.590;2023-11-19T07:53:06;12.06;94.32
70246;SHT30;57637;49.272;8.590;2023-11-19T07:55:32;12.09;94.31
70246;SHT30;57637;49.272;8.590;2023-11-19T07:57:58;12.06;94.31
70246;SHT30;57637;49.272;8.590;2023-11-19T08:00:23;12.16;94.31
70246;SHT30;57637;49.272;8.590;2023-11-19T08:02:49;12.19;94.29
70246;SHT30;57637;49.272;8.590;2023-11-19T08:05:14;12.24;94.29
70246;SHT30;57637;49.272;8.590;2023-11-19T08:07:40;12.28;94.23
70246;SHT30;57637;49.272;8.590;2023-11-19T08:10:06;12.30;94.15
70246;SHT30;57637;49.272;8.590;2023-11-19T08:12:35;12.34;94.14
70246;SHT30;57637;49.272;8.590;2023-11-19T08:15:01;12.37;94.02
70246;SHT30;57637;49.272;8.590;2023-11-19T08:17:27;12.40;94.00
70246;SHT30;57637;49.272;8.590;2023-11-19T08:19:53;12.42;93.93
70246;SHT30;57637;49.272;8.590;2023-11-19T08:22:18;12.48;93.89
70246;SHT30;57637;49.272;8.590;2023-11-19T08:24:44;12.54;93.78
70246;SHT30;57637;49.272;8.590;2023-11-19T08:27:09;12.60;93.72
70246;SHT30;57637;49.272;8.590;2023-11-19T08:29:35;12.60;93.58
70246;SHT30;57637;49.272;8.590;2023-11-19T08:32:00;12.62;93.50
70246;SHT30;57637;49.272;8.590;2023-11-19T08:34:28;12.77;93.40
70246;SHT30;57637;49.272;8.590;2023-11-19T08:36:53;12.78;93.18
70246;SHT30;57637;49.272;8.590;2023-11-19T08:39:19;12.87;93.13
70246;SHT30;57637;49.272;8.590;2023-11-19T08:41:46;12.98;93.07
70246;SHT30;57637;49.272;8.590;2023-11-19T08:44:15;13.03;92.97
70246;SHT30;57637;49.272;8.590;2023-11-19T08:46:50;13.11;92.87
70246;SHT30;57637;49.272;8.590;2023-11-19T08:49:15;13.20;92.68
70246;SHT30;57637;49.272;8.590;2023-11-19T08:51:40;13.32;92.61
70246;SHT30;57637;49.272;8.590;2023-11-19T08:54:06;13.33;92.41
70246;SHT30;57637;49.272;8.590;2023-11-19T08:56:32;13.29;92.43
70246;SHT30;57637;49.272;8.590;2023-11-19T08:58:59;13.29;92.39
70246;SHT30;57637;49.272;8.590;2023-11-19T09:01:25;13.26;92.42
70246;SHT30;57637;49.272;8.590;2023-11-19T09:03:51;13.24;92.44
70246;SHT30;57637;49.272;8.590;2023-11-19T09:06:17;13.26;92.40
70246;SHT30;57637;49.272;8.590;2023-11-19T09:08:42;13.38;92.23
70246;SHT30;57637;49.272;8.590;2023-11-19T09:11:08;13.66;92.09
70246;SHT30;57637;49.272;8.590;2023-11-19T09:13:34;13.77;91.84
70246;SHT30;57637;49.272;8.590;2023-11-19T09:16:00;13.78;91.69
70246;SHT30;57637;49.272;8.590;2023-11-19T09:18:29;13.77;91.63
70246;SHT30;57637;49.272;8.590;2023-11-19T09:20:55;13.74;91.52
70246;SHT30;57637;49.272;8.590;2023-11-19T09:23:20;13.71;91.50
70246;SHT30;57637;49.272;8.590;2023-11-19T09:25:46;13.78;91.37
70246;SHT30;57637;49.272;8.590;2023-11-19T09:28:11;13.77;91.25
70246;SHT30;57637;49.272;8.590;2023-11-19T09:30:38;13.77;91.32
70246;SHT30;57637;49.272;8.590;2023-11-19T09:33:03;13.81;91.32
70246;SHT30;57637;49.272;8.590;2023-11-19T09:35:29;13.75;91.17
70246;SHT30;57637;49.272;8.590;2023-11-19T09:37:54;13.83;91.15
70246;SHT30;57637;49.272;8.590;2023-11-19T09:40:20;13.84;90.94
70246;SHT30;57637;49.272;8.590;2023-11-19T09:42:45;13.93;90.93
70246;SHT30;57637;49.272;8.590;2023-11-19T09:45:13;14.21;90.48
70246;SHT30;57637;49.272;8.590;2023-11-19T09:47:44;14.20;90.18
70246;SHT30;57637;49.272;8.590;2023-11-19T09:50:13;14.29;90.08
70246;SHT30;57637;49.272;8.590;2023-11-19T09:52:41;14.31;89.73
70246;SHT30;57637;49.272;8.590;2023-11-19T09:55:07;14.34;89.50
70246;SHT30;57637;49.272;8.590;2023-11-19T09:57:33;14.54;89.70
70246;SHT30;57637;49.272;8.590;2023-11-19T10:00:02;14.58;89.23
70246;SHT30;57637;49.272;8.590;2023-11-19T10:02:31;14.76;89.14
70246;SHT30;57637;49.272;8.590;2023-11-19T10:04:58;14.90;88.32
70246;SHT30;57637;49.272;8.590;2023-11-19T10:07:25;15.06;88.39
70246;SHT30;57637;49.272;8.590;2023-11-19T10:09:50;15.36;87.84
70246;SHT30;57637;49.272;8.590;2023-11-19T10:12:16;15.31;87.55
70246;SHT30;57637;49.272;8.590;2023-11-19T10:14:41;15.20;87.39
70246;SHT30;57637;49.272;8.590;2023-11-19T10:17:09;15.17;87.51
70246;SHT30;57637;49.272;8.590;2023-11-19T10:19:34;15.16;87.57
70246;SHT30;57637;49.272;8.590;2023-11-19T10:22:04;15.24;87.40
70246;SHT30;57637;49.272;8.590;2023-11-19T10:24:33;15.53;87.04
70246;SHT30;57637;49.272;8.590;2023-11-19T10:26:59;15.61;86.41
70246;SHT30;57637;49.272;8.590;2023-11-19T10:29:28;15.71;86.12
70246;SHT30;57637;49.272;8.590;2023-11-19T10:31:58;15.61;86.01
70246;SHT30;57637;49.272;8.590;2023-11-19T10:34:27;15.62;86.32
70246;SHT30;57637;49.272;8.590;2023-11-19T10:36:52;15.57;85.94
70246;SHT30;57637;49.272;8.590;2023-11-19T10:39:18;15.65;85.76
70246;SHT30;57637;49.272;8.590;2023-11-19T10:41:43;15.77;85.65
70246;SHT30;57637;49.272;8.590;2023-11-19T10:44:09;15.82;85.33
70246;SHT30;57637;49.272;8.590;2023-11-19T10:46:36;15.91;84.98
70246;SHT30;57637;49.272;8.590;2023-11-19T10:49:05;15.64;85.46
70246;SHT30;57637;49.272;8.590;2023-11-19T10:51:32;15.41;85.99
70246;SHT30;57637;49.272;8.590;2023-11-19T10:54:06;15.46;86.30
70246;SHT30;57637;49.272;8.590;2023-11-19T10:56:33;15.61;85.86
70246;SHT30;57637;49.272;8.590;2023-11-19T10:58:59;15.88;85.72
70246;SHT30;57637;49.272;8.590;2023-11-19T11:01:34;15.95;85.02
70246;SHT30;57637;49.272;8.590;2023-11-19T11:04:13;16.02;84.85
70246;SHT30;57637;49.272;8.590;2023-11-19T11:06:42;15.92;84.94
70246;SHT30;57637;49.272;8.590;2023-11-19T11:09:08;15.77;85.00
70246;SHT30;57637;49.272;8.590;2023-11-19T11:11:39;15.65;85.43
70246;SHT30;57637;49.272;8.590;2023-11-19T11:14:05;15.57;85.61
70246;SHT30;57637;49.272;8.590;2023-11-19T11:16:32;15.65;85.75
70246;SHT30;57637;49.272;8.590;2023-11-19T11:18:59;15.92;85.56
70246;SHT30;57637;49.272;8.590;2023-11-19T11:21:25;16.19;84.67
70246;SHT30;57637;49.272;8.590;2023-11-19T11:29:21;16.59;81.57
70246;SHT30;57637;49.272;8.590;2023-11-19T11:32:00;16.80;80.52
70246;SHT30;57637;49.272;8.590;2023-11-19T11:35:12;17.08;79.71
70246;SHT30;57637;49.272;8.590;2023-11-19T11:38:03;16.94;78.39
70246;SHT30;57637;49.272;8.590;2023-11-19T11:40:31;16.94;77.52
70246;SHT30;57637;49.272;8.590;2023-11-19T11:42:57;16.97;76.33
70246;SHT30;57637;49.272;8.590;2023-11-19T11:45:35;16.83;75.47
70246;SHT30;57637;49.272;8.590;2023-11-19T11:48:09;16.70;75.83
70246;SHT30;57637;49.272;8.590;2023-11-19T11:50:36;16.72;75.78
70246;SHT30;57637;49.272;8.590;2023-11-19T11:53:14;16.80;75.45
70246;SHT30;57637;49.272;8.590;2023-11-19T11:58:08;16.51;74.96
70246;SHT30;57637;49.272;8.590;2023-11-19T12:00:38;16.48;75.84
70246;SHT30;57637;49.272;8.590;2023-11-19T12:03:05;16.34;75.16
70246;SHT30;57637;49.272;8.590;2023-11-19T12:05:32;16.11;75.33
70246;SHT30;57637;49.272;8.590;2023-11-19T12:08:02;16.00;76.29
70246;SHT30;57637;49.272;8.590;2023-11-19T12:10:30;15.82;76.85
70246;SHT30;57637;49.272;8.590;2023-11-19T12:13:00;15.80;77.23
70246;SHT30;57637;49.272;8.590;2023-11-19T12:15:26;15.78;77.50
70246;SHT30;57637;49.272;8.590;2023-11-19T12:17:53;15.92;77.58
70246;SHT30;57637;49.272;8.590;2023-11-19T12:20:25;15.92;77.55
70246;SHT30;57637;49.272;8.590;2023-11-19T12:22:52;15.94;77.44
70246;SHT30;57637;49.272;8.590;2023-11-19T12:25:19;16.05;77.60
70246;SHT30;57637;49.272;8.590;2023-11-19T12:27:48;16.12;77.51
70246;SHT30;57637;49.272;8.590;2023-11-19T12:32:50;16.00;77.77
70246;SHT30;57637;49.272;8.590;2023-11-19T12:35:18;15.85;76.98
70246;SHT30;57637;49.272;8.590;2023-11-19T12:37:51;15.80;77.36
70246;SHT30;57637;49.272;8.590;2023-11-19T12:40:18;15.67;77.14
70246;SHT30;57637;49.272;8.590;2023-11-19T12:42:53;15.67;76.74
70246;SHT30;57637;49.272;8.590;2023-11-19T12:45:19;15.71;76.66
70246;SHT30;57637;49.272;8.590;2023-11-19T12:47:47;15.70;76.25
70246;SHT30;57637;49.272;8.590;2023-11-19T12:50:13;15.75;76.65
70246;SHT30;57637;49.272;8.590;2023-11-19T12:52:40;15.88;76.62
70246;SHT30;57637;49.272;8.590;2023-11-19T12:55:25;16.06;75.52
70246;SHT30;57637;49.272;8.590;2023-11-19T12:57:54;16.25;74.06
70246;SHT30;57637;49.272;8.590;2023-11-19T13:00:21;16.48;73.33
70246;SHT30;57637;49.272;8.590;2023-11-19T13:02:58;16.66;72.73
70246;SHT30;57637;49.272;8.590;2023-11-19T13:05:24;16.87;72.11
70246;SHT30;57637;49.272;8.590;2023-11-19T13:08:00;16.91;71.31
70246;SHT30;57637;49.272;8.590;2023-11-19T13:10:27;16.94;70.82
70246;SHT30;57637;49.272;8.590;2023-11-19T13:12:59;17.08;70.33
70246;SHT30;57637;49.272;8.590;2023-11-19T13:15:33;16.99;69.75
70246;SHT30;57637;49.272;8.590;2023-11-19T13:17:59;17.04;69.50
70246;SHT30;57637;49.272;8.590;2023-11-19T13:20:25;17.07;69.00
70246;SHT30;57637;49.272;8.590;2023-11-19T13:23:01;17.11;68.08
70246;SHT30;57637;49.272;8.590;2023-11-19T13:25:28;17.11;67.58
70246;SHT30;57637;49.272;8.590;2023-11-19T13:27:56;17.17;68.69
70246;SHT30;57637;49.272;8.590;2023-11-19T13:30:22;17.17;68.99
70246;SHT30;57637;49.272;8.590;2023-11-19T13:32:49;17.23;69.41
70246;SHT30;57637;49.272;8.590;2023-11-19T13:35:17;17.27;70.22
70246;SHT30;57637;49.272;8.590;2023-11-19T13:37:43;17.17;70.45
70246;SHT30;57637;49.272;8.590;2023-11-19T13:40:10;17.15;70.06
70246;SHT30;57637;49.272;8.590;2023-11-19T13:42:40;17.03;70.14
70246;SHT30;57637;49.272;8.590;2023-11-19T13:45:12;16.88;69.58
70246;SHT30;57637;49.272;8.590;2023-11-19T13:47:39;16.90;70.54
70246;SHT30;57637;49.272;8.590;2023-11-19T13:50:07;16.73;70.84
70246;SHT30;57637;49.272;8.590;2023-11-19T13:52:34;16.57;70.81
70246;SHT30;57637;49.272;8.590;2023-11-19T13:54:59;16.51;70.67
70246;SHT30;57637;49.272;8.590;2023-11-19T13:57:25;16.41;69.03
70246;SHT30;57637;49.272;8.590;2023-11-19T13:59:51;16.34;68.72
70246;SHT30;57637;49.272;8.590;2023-11-19T14:02:16;16.23;67.75
70246;SHT30;57637;49.272;8.590;2023-11-19T14:04:41;16.30;68.89
70246;SHT30;57637;49.272;8.590;2023-11-19T14:07:07;16.30;68.88
70246;SHT30;57637;49.272;8.590;2023-11-19T14:09:32;16.29;69.77
70246;SHT30;57637;49.272;8.590;2023-11-19T14:11:58;16.26;70.62
70246;SHT30;57637;49.272;8.590;2023-11-19T14:14:23;16.33;71.36
70246;SHT30;57637;49.272;8.590;2023-11-19T14:16:49;16.34;71.94
70246;SHT30;57637;49.272;8.590;2023-11-19T14:19:14;16.22;72.70
70246;SHT30;57637;49.272;8.590;2023-11-19T14:21:40;16.12;73.04
70246;SHT30;57637;49.272;8.590;2023-11-19T14:24:05;16.00;73.51
70246;SHT30;57637;49.272;8.590;2023-11-19T14:26:31;15.87;73.77
70246;SHT30;57637;49.272;8.590;2023-11-19T14:28:56;15.80;73.97
70246;SHT30;57637;49.272;8.590;2023-11-19T14:31:21;15.77;74.85
70246;SHT30;57637;49.272;8.590;2023-11-19T14:33:47;15.68;74.64
70246;SHT30;57637;49.272;8.590;2023-11-19T14:36:13;15.54;74.41
70246;SHT30;57637;49.272;8.590;2023-11-19T14:38:39;15.41;74.57
70246;SHT30;57637;49.272;8.590;2023-11-19T14:41:05;15.34;74.67
70246;SHT30;57637;49.272;8.590;2023-11-19T14:43:30;15.26;74.75
70246;SHT30;57637;49.272;8.590;2023-11-19T14:45:56;15.20;74.50
70246;SHT30;57637;49.272;8.590;2023-11-19T14:48:21;15.10;74.54
70246;SHT30;57637;49.272;8.590;2023-11-19T14:50:46;15.00;74.32
70246;SHT30;57637;49.272;8.590;2023-11-19T14:53:12;14.99;74.52
70246;SHT30;57637;49.272;8.590;2023-11-19T14:55:37;14.89;74.65
70246;SHT30;57637;49.272;8.590;2023-11-19T14:58:03;14.78;74.77
70246;SHT30;57637;49.272;8.590;2023-11-19T15:00:28;14.71;74.72
70246;SHT30;57637;49.272;8.590;2023-11-19T15:02:53;14.66;74.09
70246;SHT30;57637;49.272;8.590;2023-11-19T15:05:19;14.61;74.00
70246;SHT30;57637;49.272;8.590;2023-11-19T15:07:45;14.59;73.44
70246;SHT30;57637;49.272;8.590;2023-11-19T15:10:10;14.52;73.24
70246;SHT30;57637;49.272;8.590;2023-11-19T15:12:37;14.52;72.93
70246;SHT30;57637;49.272;8.590;2023-11-19T15:15:05;14.46;72.71
70246;SHT30;57637;49.272;8.590;2023-11-19T15:17:32;14.46;72.77
70246;SHT30;57637;49.272;8.590;2023-11-19T15:19:58;14.42;72.95
70246;SHT30;57637;49.272;8.590;2023-11-19T15:22:24;14.35;73.06
70246;SHT30;57637;49.272;8.590;2023-11-19T15:24:49;14.28;73.33
70246;SHT30;57637;49.272;8.590;2023-11-19T15:27:14;14.22;73.54
70246;SHT30;57637;49.272;8.590;2023-11-19T15:29:40;14.20;73.87
70246;SHT30;57637;49.272;8.590;2023-11-19T15:32:05;14.14;73.89
70246;SHT30;57637;49.272;8.590;2023-11-19T15:34:32;14.08;73.91
70246;SHT30;57637;49.272;8.590;2023-11-19T15:36:58;14.05;74.33
70246;SHT30;57637;49.272;8.590;2023-11-19T15:39:25;13.95;74.62
70246;SHT30;57637;49.272;8.590;2023-11-19T15:41:54;13.88;74.85
70246;SHT30;57637;49.272;8.590;2023-11-19T15:44:20;13.88;75.00